sensor_id;sensor_type;location;lat;lon;timestamp;P1;durP1;ratioP1;P2;durP2;ratioP2
80823;SDS011;70538;59.122;37.876;2023-09-07T00:01:13;48.10;;;16.45;;
80823;SDS011;70538;59.122;37.876;2023-09-07T00:03:41;39.00;;;15.38;;
80823;SDS011;70538;59.122;37.876;2023-09-07T00:06:09;53.33;;;19.48;;
80823;SDS011;70538;59.122;37.876;2023-09-07T00:08:37;62.13;;;20.00;;
80823;SDS011;70538;59.122;37.876;2023-09-07T00:11:06;59.00;;;18.98;;
80823;SDS011;70538;59.122;37.876;2023-09-07T00:13:34;43.53;;;14.90;;
80823;SDS011;70538;59.122;37.876;2023-09-07T00:16:03;37.88;;;12.65;;
80823;SDS011;70538;59.122;37.876;2023-09-07T00:18:32;54.85;;;18.98;;
80823;SDS011;70538;59.122;37.876;2023-09-07T00:21:01;55.93;;;17.83;;
80823;SDS011;70538;59.122;37.876;2023-09-07T00:23:29;40.83;;;14.38;;
80823;SDS011;70538;59.122;37.876;2023-09-07T00:25:57;50.20;;;18.25;;
80823;SDS011;70538;59.122;37.876;2023-09-07T00:28:25;55.97;;;19.38;;
80823;SDS011;70538;59.122;37.876;2023-09-07T00:30:53;45.53;;;16.50;;
80823;SDS011;70538;59.122;37.876;2023-09-07T00:33:20;58.73;;;18.20;;
80823;SDS011;70538;59.122;37.876;2023-09-07T00:35:48;57.85;;;16.23;;
80823;SDS011;70538;59.122;37.876;2023-09-07T00:38:16;41.85;;;13.80;;
80823;SDS011;70538;59.122;37.876;2023-09-07T00:40:44;52.10;;;16.15;;
80823;SDS011;70538;59.122;37.876;2023-09-07T00:43:15;47.95;;;19.30;;
80823;SDS011;70538;59.122;37.876;2023-09-07T00:45:42;53.40;;;13.77;;
80823;SDS011;70538;59.122;37.876;2023-09-07T00:48:11;39.15;;;15.18;;
80823;SDS011;70538;59.122;37.876;2023-09-07T00:50:40;46.38;;;15.38;;
80823;SDS011;70538;59.122;37.876;2023-09-07T00:53:10;43.90;;;15.77;;
80823;SDS011;70538;59.122;37.876;2023-09-07T00:55:38;32.45;;;12.85;;
80823;SDS011;70538;59.122;37.876;2023-09-07T00:58:06;35.17;;;12.83;;
80823;SDS011;70538;59.122;37.876;2023-09-07T01:00:34;65.43;;;20.50;;
80823;SDS011;70538;59.122;37.876;2023-09-07T01:03:02;46.03;;;16.25;;
80823;SDS011;70538;59.122;37.876;2023-09-07T01:05:34;57.30;;;23.40;;
80823;SDS011;70538;59.122;37.876;2023-09-07T01:08:32;62.78;;;23.70;;
80823;SDS011;70538;59.122;37.876;2023-09-07T01:11:13;47.03;;;15.07;;
80823;SDS011;70538;59.122;37.876;2023-09-07T01:13:43;44.92;;;13.30;;
80823;SDS011;70538;59.122;37.876;2023-09-07T01:16:12;45.85;;;17.25;;
80823;SDS011;70538;59.122;37.876;2023-09-07T01:18:40;39.47;;;11.23;;
80823;SDS011;70538;59.122;37.876;2023-09-07T01:21:10;52.13;;;16.25;;
80823;SDS011;70538;59.122;37.876;2023-09-07T01:23:41;48.30;;;14.50;;
80823;SDS011;70538;59.122;37.876;2023-09-07T01:26:11;52.42;;;15.43;;
80823;SDS011;70538;59.122;37.876;2023-09-07T01:28:39;43.25;;;12.80;;
80823;SDS011;70538;59.122;37.876;2023-09-07T01:31:07;47.53;;;16.35;;
80823;SDS011;70538;59.122;37.876;2023-09-07T01:33:35;42.47;;;12.90;;
80823;SDS011;70538;59.122;37.876;2023-09-07T01:36:03;43.07;;;14.23;;
80823;SDS011;70538;59.122;37.876;2023-09-07T01:38:31;46.90;;;15.50;;
80823;SDS011;70538;59.122;37.876;2023-09-07T01:41:00;44.13;;;15.05;;
80823;SDS011;70538;59.122;37.876;2023-09-07T01:43:28;60.72;;;19.17;;
80823;SDS011;70538;59.122;37.876;2023-09-07T01:45:56;44.03;;;14.35;;
80823;SDS011;70538;59.122;37.876;2023-09-07T01:48:26;33.33;;;12.20;;
80823;SDS011;70538;59.122;37.876;2023-09-07T01:50:54;49.92;;;15.90;;
80823;SDS011;70538;59.122;37.876;2023-09-07T01:53:22;43.53;;;13.45;;
80823;SDS011;70538;59.122;37.876;2023-09-07T01:55:50;46.15;;;15.30;;
80823;SDS011;70538;59.122;37.876;2023-09-07T01:58:22;45.78;;;12.98;;
80823;SDS011;70538;59.122;37.876;2023-09-07T02:00:57;67.10;;;20.63;;
80823;SDS011;70538;59.122;37.876;2023-09-07T02:03:26;59.10;;;18.58;;
80823;SDS011;70538;59.122;37.876;2023-09-07T02:05:54;51.25;;;16.10;;
80823;SDS011;70538;59.122;37.876;2023-09-07T02:08:22;51.28;;;16.77;;
80823;SDS011;70538;59.122;37.876;2023-09-07T02:10:50;58.50;;;18.17;;
80823;SDS011;70538;59.122;37.876;2023-09-07T02:13:18;75.33;;;20.67;;
80823;SDS011;70538;59.122;37.876;2023-09-07T02:15:46;55.50;;;15.30;;
80823;SDS011;70538;59.122;37.876;2023-09-07T02:18:14;61.72;;;18.75;;
80823;SDS011;70538;59.122;37.876;2023-09-07T02:20:42;55.53;;;16.45;;
80823;SDS011;70538;59.122;37.876;2023-09-07T02:23:10;75.75;;;22.73;;
80823;SDS011;70538;59.122;37.876;2023-09-07T02:25:38;57.20;;;18.00;;
80823;SDS011;70538;59.122;37.876;2023-09-07T02:28:07;64.07;;;18.92;;
80823;SDS011;70538;59.122;37.876;2023-09-07T02:30:34;54.13;;;17.45;;
80823;SDS011;70538;59.122;37.876;2023-09-07T02:33:03;44.10;;;15.80;;
80823;SDS011;70538;59.122;37.876;2023-09-07T02:35:31;58.85;;;21.05;;
80823;SDS011;70538;59.122;37.876;2023-09-07T02:37:59;76.47;;;20.27;;
80823;SDS011;70538;59.122;37.876;2023-09-07T02:40:27;53.67;;;18.33;;
80823;SDS011;70538;59.122;37.876;2023-09-07T02:42:55;53.90;;;20.00;;
80823;SDS011;70538;59.122;37.876;2023-09-07T02:45:23;86.85;;;34.15;;
80823;SDS011;70538;59.122;37.876;2023-09-07T02:47:51;52.83;;;21.05;;
80823;SDS011;70538;59.122;37.876;2023-09-07T02:50:19;59.23;;;21.63;;
80823;SDS011;70538;59.122;37.876;2023-09-07T02:52:47;58.88;;;18.38;;
80823;SDS011;70538;59.122;37.876;2023-09-07T02:55:14;55.83;;;13.13;;
80823;SDS011;70538;59.122;37.876;2023-09-07T02:57:42;53.78;;;17.35;;
80823;SDS011;70538;59.122;37.876;2023-09-07T03:00:10;51.92;;;18.13;;
80823;SDS011;70538;59.122;37.876;2023-09-07T03:02:38;47.50;;;12.70;;
80823;SDS011;70538;59.122;37.876;2023-09-07T03:05:06;57.33;;;17.58;;
80823;SDS011;70538;59.122;37.876;2023-09-07T03:07:35;34.17;;;11.40;;
80823;SDS011;70538;59.122;37.876;2023-09-07T03:10:03;28.60;;;10.35;;
80823;SDS011;70538;59.122;37.876;2023-09-07T03:12:31;37.17;;;12.73;;
80823;SDS011;70538;59.122;37.876;2023-09-07T03:14:59;31.90;;;11.53;;
80823;SDS011;70538;59.122;37.876;2023-09-07T03:17:33;35.30;;;11.73;;
80823;SDS011;70538;59.122;37.876;2023-09-07T03:20:01;38.15;;;12.40;;
80823;SDS011;70538;59.122;37.876;2023-09-07T03:22:41;47.58;;;14.05;;
80823;SDS011;70538;59.122;37.876;2023-09-07T03:25:10;55.10;;;18.40;;
80823;SDS011;70538;59.122;37.876;2023-09-07T03:27:39;35.97;;;14.47;;
80823;SDS011;70538;59.122;37.876;2023-09-07T03:30:10;37.08;;;13.65;;
80823;SDS011;70538;59.122;37.876;2023-09-07T03:32:38;46.35;;;14.85;;
80823;SDS011;70538;59.122;37.876;2023-09-07T03:35:06;33.35;;;11.50;;
80823;SDS011;70538;59.122;37.876;2023-09-07T03:37:37;44.00;;;15.48;;
80823;SDS011;70538;59.122;37.876;2023-09-07T03:40:05;48.80;;;18.13;;
80823;SDS011;70538;59.122;37.876;2023-09-07T03:42:33;43.78;;;18.88;;
80823;SDS011;70538;59.122;37.876;2023-09-07T03:45:02;42.58;;;17.88;;
80823;SDS011;70538;59.122;37.876;2023-09-07T03:47:31;54.38;;;25.73;;
80823;SDS011;70538;59.122;37.876;2023-09-07T03:49:59;65.38;;;27.27;;
80823;SDS011;70538;59.122;37.876;2023-09-07T03:52:30;49.17;;;20.83;;
80823;SDS011;70538;59.122;37.876;2023-09-07T03:54:59;46.80;;;17.27;;
80823;SDS011;70538;59.122;37.876;2023-09-07T03:57:30;54.58;;;26.13;;
80823;SDS011;70538;59.122;37.876;2023-09-07T03:59:58;91.75;;;45.55;;
80823;SDS011;70538;59.122;37.876;2023-09-07T04:02:26;75.03;;;36.50;;
80823;SDS011;70538;59.122;37.876;2023-09-07T04:04:54;46.70;;;24.90;;
80823;SDS011;70538;59.122;37.876;2023-09-07T04:07:25;44.38;;;17.40;;
80823;SDS011;70538;59.122;37.876;2023-09-07T04:09:53;73.43;;;26.45;;
80823;SDS011;70538;59.122;37.876;2023-09-07T04:12:21;52.60;;;17.52;;
80823;SDS011;70538;59.122;37.876;2023-09-07T04:14:49;43.92;;;15.40;;
80823;SDS011;70538;59.122;37.876;2023-09-07T04:17:17;32.90;;;12.80;;
80823;SDS011;70538;59.122;37.876;2023-09-07T04:19:45;33.17;;;12.40;;
80823;SDS011;70538;59.122;37.876;2023-09-07T04:22:13;57.38;;;20.27;;
80823;SDS011;70538;59.122;37.876;2023-09-07T04:24:41;44.05;;;15.18;;
80823;SDS011;70538;59.122;37.876;2023-09-07T04:27:09;40.40;;;16.10;;
80823;SDS011;70538;59.122;37.876;2023-09-07T04:29:36;55.17;;;21.17;;
80823;SDS011;70538;59.122;37.876;2023-09-07T04:32:04;46.53;;;15.15;;
80823;SDS011;70538;59.122;37.876;2023-09-07T04:34:32;32.25;;;11.30;;
80823;SDS011;70538;59.122;37.876;2023-09-07T04:37:00;55.90;;;15.77;;
80823;SDS011;70538;59.122;37.876;2023-09-07T04:39:27;50.55;;;16.85;;
80823;SDS011;70538;59.122;37.876;2023-09-07T04:41:55;54.00;;;17.67;;
80823;SDS011;70538;59.122;37.876;2023-09-07T04:44:23;30.48;;;11.73;;
80823;SDS011;70538;59.122;37.876;2023-09-07T04:46:50;28.20;;;9.85;;
80823;SDS011;70538;59.122;37.876;2023-09-07T04:49:19;54.55;;;17.55;;
80823;SDS011;70538;59.122;37.876;2023-09-07T04:51:47;38.28;;;13.02;;
80823;SDS011;70538;59.122;37.876;2023-09-07T04:54:15;55.77;;;16.73;;
80823;SDS011;70538;59.122;37.876;2023-09-07T04:56:43;55.60;;;16.52;;
80823;SDS011;70538;59.122;37.876;2023-09-07T04:59:11;32.03;;;9.50;;
80823;SDS011;70538;59.122;37.876;2023-09-07T05:01:38;49.65;;;15.05;;
80823;SDS011;70538;59.122;37.876;2023-09-07T05:04:06;30.30;;;10.38;;
80823;SDS011;70538;59.122;37.876;2023-09-07T05:06:34;58.17;;;14.83;;
80823;SDS011;70538;59.122;37.876;2023-09-07T05:09:04;49.60;;;15.20;;
80823;SDS011;70538;59.122;37.876;2023-09-07T05:11:32;71.20;;;19.25;;
80823;SDS011;70538;59.122;37.876;2023-09-07T05:14:02;48.90;;;15.85;;
80823;SDS011;70538;59.122;37.876;2023-09-07T05:16:29;66.68;;;19.23;;
80823;SDS011;70538;59.122;37.876;2023-09-07T05:18:57;32.17;;;8.07;;
80823;SDS011;70538;59.122;37.876;2023-09-07T05:21:25;46.83;;;12.68;;
80823;SDS011;70538;59.122;37.876;2023-09-07T05:23:53;37.97;;;10.85;;
80823;SDS011;70538;59.122;37.876;2023-09-07T05:26:21;26.27;;;7.97;;
80823;SDS011;70538;59.122;37.876;2023-09-07T05:28:51;26.45;;;6.53;;
80823;SDS011;70538;59.122;37.876;2023-09-07T05:31:19;38.67;;;9.53;;
80823;SDS011;70538;59.122;37.876;2023-09-07T05:33:47;32.35;;;7.95;;
80823;SDS011;70538;59.122;37.876;2023-09-07T05:36:15;45.05;;;10.07;;
80823;SDS011;70538;59.122;37.876;2023-09-07T05:38:43;38.67;;;8.00;;
80823;SDS011;70538;59.122;37.876;2023-09-07T05:41:10;39.40;;;9.15;;
80823;SDS011;70538;59.122;37.876;2023-09-07T05:43:38;47.43;;;11.23;;
80823;SDS011;70538;59.122;37.876;2023-09-07T05:46:06;55.42;;;10.70;;
80823;SDS011;70538;59.122;37.876;2023-09-07T05:48:34;45.25;;;10.98;;
80823;SDS011;70538;59.122;37.876;2023-09-07T05:51:02;23.42;;;6.10;;
80823;SDS011;70538;59.122;37.876;2023-09-07T05:53:30;33.10;;;5.90;;
80823;SDS011;70538;59.122;37.876;2023-09-07T05:55:58;21.93;;;4.40;;
80823;SDS011;70538;59.122;37.876;2023-09-07T05:58:26;31.17;;;8.38;;
80823;SDS011;70538;59.122;37.876;2023-09-07T06:00:54;32.88;;;8.30;;
80823;SDS011;70538;59.122;37.876;2023-09-07T06:03:22;24.50;;;6.43;;
80823;SDS011;70538;59.122;37.876;2023-09-07T06:05:50;24.55;;;5.60;;
80823;SDS011;70538;59.122;37.876;2023-09-07T06:08:17;26.67;;;6.40;;
80823;SDS011;70538;59.122;37.876;2023-09-07T06:10:45;34.75;;;8.80;;
80823;SDS011;70538;59.122;37.876;2023-09-07T06:13:13;28.80;;;6.78;;
80823;SDS011;70538;59.122;37.876;2023-09-07T06:15:40;31.48;;;9.50;;
80823;SDS011;70538;59.122;37.876;2023-09-07T06:18:08;31.17;;;10.27;;
80823;SDS011;70538;59.122;37.876;2023-09-07T06:20:36;45.53;;;12.67;;
80823;SDS011;70538;59.122;37.876;2023-09-07T06:23:04;17.02;;;4.63;;
80823;SDS011;70538;59.122;37.876;2023-09-07T06:25:32;13.85;;;4.22;;
80823;SDS011;70538;59.122;37.876;2023-09-07T06:28:00;27.27;;;7.35;;
80823;SDS011;70538;59.122;37.876;2023-09-07T06:30:27;19.45;;;5.40;;
80823;SDS011;70538;59.122;37.876;2023-09-07T06:32:55;31.57;;;8.57;;
80823;SDS011;70538;59.122;37.876;2023-09-07T06:35:24;21.23;;;6.18;;
80823;SDS011;70538;59.122;37.876;2023-09-07T06:37:52;20.98;;;6.75;;
80823;SDS011;70538;59.122;37.876;2023-09-07T06:40:20;43.97;;;11.48;;
80823;SDS011;70538;59.122;37.876;2023-09-07T06:42:47;17.40;;;5.95;;
80823;SDS011;70538;59.122;37.876;2023-09-07T06:45:15;15.73;;;5.43;;
80823;SDS011;70538;59.122;37.876;2023-09-07T06:47:43;15.80;;;4.47;;
80823;SDS011;70538;59.122;37.876;2023-09-07T06:50:11;11.63;;;2.70;;
80823;SDS011;70538;59.122;37.876;2023-09-07T06:52:39;22.95;;;5.47;;
80823;SDS011;70538;59.122;37.876;2023-09-07T06:55:07;18.00;;;4.10;;
80823;SDS011;70538;59.122;37.876;2023-09-07T06:57:36;23.43;;;6.90;;
80823;SDS011;70538;59.122;37.876;2023-09-07T07:00:04;22.17;;;5.68;;
80823;SDS011;70538;59.122;37.876;2023-09-07T07:02:32;19.20;;;5.93;;
80823;SDS011;70538;59.122;37.876;2023-09-07T07:05:00;32.80;;;7.90;;
80823;SDS011;70538;59.122;37.876;2023-09-07T07:07:30;23.58;;;4.80;;
80823;SDS011;70538;59.122;37.876;2023-09-07T07:09:58;9.80;;;3.80;;
80823;SDS011;70538;59.122;37.876;2023-09-07T07:12:26;17.40;;;4.30;;
80823;SDS011;70538;59.122;37.876;2023-09-07T07:14:54;18.10;;;2.88;;
80823;SDS011;70538;59.122;37.876;2023-09-07T07:17:22;12.52;;;2.28;;
80823;SDS011;70538;59.122;37.876;2023-09-07T07:19:50;16.55;;;2.92;;
80823;SDS011;70538;59.122;37.876;2023-09-07T07:22:18;15.70;;;2.70;;
80823;SDS011;70538;59.122;37.876;2023-09-07T07:24:47;8.63;;;1.67;;
80823;SDS011;70538;59.122;37.876;2023-09-07T07:27:15;13.27;;;2.50;;
80823;SDS011;70538;59.122;37.876;2023-09-07T07:29:45;18.50;;;4.68;;
80823;SDS011;70538;59.122;37.876;2023-09-07T07:32:13;32.25;;;8.80;;
80823;SDS011;70538;59.122;37.876;2023-09-07T07:34:41;17.53;;;3.50;;
80823;SDS011;70538;59.122;37.876;2023-09-07T07:37:10;14.40;;;2.90;;
80823;SDS011;70538;59.122;37.876;2023-09-07T07:39:38;9.50;;;1.70;;
80823;SDS011;70538;59.122;37.876;2023-09-07T07:42:05;8.30;;;1.77;;
80823;SDS011;70538;59.122;37.876;2023-09-07T07:44:33;9.75;;;3.03;;
80823;SDS011;70538;59.122;37.876;2023-09-07T07:47:01;17.70;;;4.03;;
80823;SDS011;70538;59.122;37.876;2023-09-07T07:49:29;12.35;;;3.13;;
80823;SDS011;70538;59.122;37.876;2023-09-07T07:51:58;13.10;;;3.67;;
80823;SDS011;70538;59.122;37.876;2023-09-07T07:54:26;11.57;;;3.70;;
80823;SDS011;70538;59.122;37.876;2023-09-07T07:56:55;12.88;;;4.30;;
80823;SDS011;70538;59.122;37.876;2023-09-07T07:59:23;14.73;;;5.00;;
80823;SDS011;70538;59.122;37.876;2023-09-07T08:01:51;9.60;;;2.67;;
80823;SDS011;70538;59.122;37.876;2023-09-07T08:04:18;9.43;;;1.85;;
80823;SDS011;70538;59.122;37.876;2023-09-07T08:06:47;9.30;;;1.50;;
80823;SDS011;70538;59.122;37.876;2023-09-07T08:09:14;10.18;;;1.80;;
80823;SDS011;70538;59.122;37.876;2023-09-07T08:11:42;9.07;;;2.53;;
80823;SDS011;70538;59.122;37.876;2023-09-07T08:14:10;12.02;;;3.08;;
80823;SDS011;70538;59.122;37.876;2023-09-07T08:16:40;10.93;;;3.70;;
80823;SDS011;70538;59.122;37.876;2023-09-07T08:19:08;25.02;;;8.15;;
80823;SDS011;70538;59.122;37.876;2023-09-07T08:21:36;10.13;;;3.45;;
80823;SDS011;70538;59.122;37.876;2023-09-07T08:24:05;18.67;;;3.20;;
80823;SDS011;70538;59.122;37.876;2023-09-07T08:26:33;8.15;;;2.20;;
80823;SDS011;70538;59.122;37.876;2023-09-07T08:29:07;9.52;;;2.33;;
80823;SDS011;70538;59.122;37.876;2023-09-07T08:31:36;10.55;;;3.38;;
80823;SDS011;70538;59.122;37.876;2023-09-07T08:34:06;8.20;;;2.80;;
80823;SDS011;70538;59.122;37.876;2023-09-07T08:36:38;18.60;;;7.33;;
80823;SDS011;70538;59.122;37.876;2023-09-07T08:39:06;23.05;;;6.00;;
80823;SDS011;70538;59.122;37.876;2023-09-07T08:41:37;19.95;;;7.10;;
80823;SDS011;70538;59.122;37.876;2023-09-07T08:44:27;22.13;;;9.63;;
80823;SDS011;70538;59.122;37.876;2023-09-07T08:46:56;19.77;;;6.40;;
80823;SDS011;70538;59.122;37.876;2023-09-07T08:49:27;17.53;;;5.70;;
80823;SDS011;70538;59.122;37.876;2023-09-07T08:51:58;16.13;;;4.85;;
80823;SDS011;70538;59.122;37.876;2023-09-07T08:54:26;10.57;;;2.42;;
80823;SDS011;70538;59.122;37.876;2023-09-07T08:56:56;10.00;;;2.08;;
80823;SDS011;70538;59.122;37.876;2023-09-07T08:59:25;17.00;;;2.67;;
80823;SDS011;70538;59.122;37.876;2023-09-07T09:01:56;8.10;;;2.17;;
80823;SDS011;70538;59.122;37.876;2023-09-07T09:04:28;7.95;;;1.95;;
80823;SDS011;70538;59.122;37.876;2023-09-07T09:06:57;16.75;;;5.22;;
80823;SDS011;70538;59.122;37.876;2023-09-07T09:09:26;16.40;;;6.15;;
80823;SDS011;70538;59.122;37.876;2023-09-07T09:11:54;12.30;;;2.53;;
80823;SDS011;70538;59.122;37.876;2023-09-07T09:14:22;15.03;;;4.77;;
80823;SDS011;70538;59.122;37.876;2023-09-07T09:16:51;16.83;;;6.35;;
80823;SDS011;70538;59.122;37.876;2023-09-07T09:19:29;13.40;;;4.70;;
80823;SDS011;70538;59.122;37.876;2023-09-07T09:22:01;22.05;;;5.53;;
80823;SDS011;70538;59.122;37.876;2023-09-07T09:24:31;12.65;;;2.67;;
80823;SDS011;70538;59.122;37.876;2023-09-07T09:27:02;19.20;;;6.70;;
80823;SDS011;70538;59.122;37.876;2023-09-07T09:29:32;19.58;;;7.05;;
80823;SDS011;70538;59.122;37.876;2023-09-07T09:32:06;23.60;;;8.45;;
80823;SDS011;70538;59.122;37.876;2023-09-07T09:34:35;22.92;;;7.30;;
80823;SDS011;70538;59.122;37.876;2023-09-07T09:37:05;25.42;;;7.82;;
80823;SDS011;70538;59.122;37.876;2023-09-07T09:39:40;15.80;;;4.70;;
80823;SDS011;70538;59.122;37.876;2023-09-07T09:42:09;15.88;;;3.45;;
80823;SDS011;70538;59.122;37.876;2023-09-07T09:44:38;13.55;;;4.88;;
80823;SDS011;70538;59.122;37.876;2023-09-07T09:47:08;6.68;;;2.00;;
80823;SDS011;70538;59.122;37.876;2023-09-07T09:49:37;11.93;;;2.83;;
80823;SDS011;70538;59.122;37.876;2023-09-07T09:52:06;16.67;;;3.33;;
80823;SDS011;70538;59.122;37.876;2023-09-07T09:54:35;15.65;;;4.25;;
80823;SDS011;70538;59.122;37.876;2023-09-07T09:57:03;14.32;;;4.18;;
80823;SDS011;70538;59.122;37.876;2023-09-07T09:59:31;5.72;;;1.25;;
80823;SDS011;70538;59.122;37.876;2023-09-07T10:01:59;3.60;;;1.05;;
80823;SDS011;70538;59.122;37.876;2023-09-07T10:04:29;4.70;;;1.60;;
80823;SDS011;70538;59.122;37.876;2023-09-07T10:07:01;9.00;;;2.50;;
80823;SDS011;70538;59.122;37.876;2023-09-07T10:09:33;20.77;;;5.72;;
80823;SDS011;70538;59.122;37.876;2023-09-07T10:12:02;18.55;;;5.78;;
80823;SDS011;70538;59.122;37.876;2023-09-07T10:14:39;20.73;;;7.80;;
80823;SDS011;70538;59.122;37.876;2023-09-07T10:17:08;11.63;;;3.33;;
80823;SDS011;70538;59.122;37.876;2023-09-07T10:19:37;10.70;;;2.95;;
80823;SDS011;70538;59.122;37.876;2023-09-07T10:22:07;22.38;;;4.60;;
80823;SDS011;70538;59.122;37.876;2023-09-07T10:24:35;7.32;;;2.13;;
80823;SDS011;70538;59.122;37.876;2023-09-07T10:27:04;6.47;;;1.73;;
80823;SDS011;70538;59.122;37.876;2023-09-07T10:29:49;5.60;;;1.60;;
80823;SDS011;70538;59.122;37.876;2023-09-07T10:32:23;6.60;;;1.38;;
80823;SDS011;70538;59.122;37.876;2023-09-07T10:34:51;4.35;;;0.90;;
80823;SDS011;70538;59.122;37.876;2023-09-07T10:37:19;15.65;;;3.17;;
80823;SDS011;70538;59.122;37.876;2023-09-07T10:39:47;5.80;;;1.40;;
80823;SDS011;70538;59.122;37.876;2023-09-07T10:42:21;6.17;;;1.73;;
80823;SDS011;70538;59.122;37.876;2023-09-07T10:44:50;5.03;;;1.38;;
80823;SDS011;70538;59.122;37.876;2023-09-07T10:47:18;6.68;;;1.80;;
80823;SDS011;70538;59.122;37.876;2023-09-07T10:49:47;5.25;;;1.10;;
80823;SDS011;70538;59.122;37.876;2023-09-07T10:52:15;5.93;;;1.50;;
80823;SDS011;70538;59.122;37.876;2023-09-07T10:54:44;3.93;;;0.90;;
80823;SDS011;70538;59.122;37.876;2023-09-07T10:57:12;4.57;;;1.20;;
80823;SDS011;70538;59.122;37.876;2023-09-07T10:59:44;3.70;;;1.10;;
80823;SDS011;70538;59.122;37.876;2023-09-07T11:02:15;4.45;;;1.25;;
80823;SDS011;70538;59.122;37.876;2023-09-07T11:04:43;9.05;;;1.75;;
80823;SDS011;70538;59.122;37.876;2023-09-07T11:07:13;5.57;;;1.20;;
80823;SDS011;70538;59.122;37.876;2023-09-07T11:09:41;4.28;;;1.10;;
80823;SDS011;70538;59.122;37.876;2023-09-07T11:12:15;5.13;;;1.00;;
80823;SDS011;70538;59.122;37.876;2023-09-07T11:14:43;3.58;;;0.85;;
80823;SDS011;70538;59.122;37.876;2023-09-07T11:17:16;7.97;;;1.45;;
80823;SDS011;70538;59.122;37.876;2023-09-07T11:19:44;6.23;;;1.40;;
80823;SDS011;70538;59.122;37.876;2023-09-07T11:22:12;9.32;;;1.88;;
80823;SDS011;70538;59.122;37.876;2023-09-07T11:24:41;8.55;;;2.30;;
80823;SDS011;70538;59.122;37.876;2023-09-07T11:27:09;8.40;;;1.83;;
80823;SDS011;70538;59.122;37.876;2023-09-07T11:29:37;10.00;;;2.42;;
80823;SDS011;70538;59.122;37.876;2023-09-07T11:32:07;5.30;;;1.30;;
80823;SDS011;70538;59.122;37.876;2023-09-07T11:34:49;7.05;;;2.03;;
80823;SDS011;70538;59.122;37.876;2023-09-07T11:37:24;12.82;;;3.30;;
80823;SDS011;70538;59.122;37.876;2023-09-07T11:39:53;11.20;;;2.72;;
80823;SDS011;70538;59.122;37.876;2023-09-07T11:42:21;8.68;;;2.20;;
80823;SDS011;70538;59.122;37.876;2023-09-07T11:44:49;7.93;;;2.37;;
80823;SDS011;70538;59.122;37.876;2023-09-07T11:47:18;5.82;;;1.80;;
80823;SDS011;70538;59.122;37.876;2023-09-07T11:49:47;7.88;;;2.25;;
80823;SDS011;70538;59.122;37.876;2023-09-07T11:52:16;6.65;;;2.10;;
80823;SDS011;70538;59.122;37.876;2023-09-07T11:54:44;7.53;;;2.22;;
80823;SDS011;70538;59.122;37.876;2023-09-07T11:57:12;5.73;;;1.50;;
80823;SDS011;70538;59.122;37.876;2023-09-07T11:59:40;9.75;;;2.60;;
80823;SDS011;70538;59.122;37.876;2023-09-07T12:02:24;7.80;;;2.00;;
80823;SDS011;70538;59.122;37.876;2023-09-07T12:04:52;4.90;;;1.42;;
80823;SDS011;70538;59.122;37.876;2023-09-07T12:07:21;8.18;;;1.52;;
80823;SDS011;70538;59.122;37.876;2023-09-07T12:09:51;4.57;;;1.00;;
80823;SDS011;70538;59.122;37.876;2023-09-07T12:12:19;7.82;;;1.70;;
80823;SDS011;70538;59.122;37.876;2023-09-07T12:14:47;5.07;;;1.60;;
80823;SDS011;70538;59.122;37.876;2023-09-07T12:17:15;8.40;;;1.90;;
80823;SDS011;70538;59.122;37.876;2023-09-07T12:19:43;10.43;;;2.45;;
80823;SDS011;70538;59.122;37.876;2023-09-07T12:22:13;14.40;;;2.57;;
80823;SDS011;70538;59.122;37.876;2023-09-07T12:24:41;13.98;;;3.95;;
80823;SDS011;70538;59.122;37.876;2023-09-07T12:27:09;11.65;;;3.67;;
80823;SDS011;70538;59.122;37.876;2023-09-07T12:29:37;13.43;;;6.18;;
80823;SDS011;70538;59.122;37.876;2023-09-07T12:32:05;6.38;;;2.03;;
80823;SDS011;70538;59.122;37.876;2023-09-07T12:34:33;6.27;;;1.87;;
80823;SDS011;70538;59.122;37.876;2023-09-07T12:37:01;6.85;;;1.95;;
80823;SDS011;70538;59.122;37.876;2023-09-07T12:39:32;7.18;;;2.20;;
80823;SDS011;70538;59.122;37.876;2023-09-07T12:42:00;7.18;;;2.55;;
80823;SDS011;70538;59.122;37.876;2023-09-07T12:44:28;9.25;;;2.10;;
80823;SDS011;70538;59.122;37.876;2023-09-07T12:46:56;7.00;;;2.20;;
80823;SDS011;70538;59.122;37.876;2023-09-07T12:49:24;5.32;;;1.50;;
80823;SDS011;70538;59.122;37.876;2023-09-07T12:51:52;4.65;;;1.58;;
80823;SDS011;70538;59.122;37.876;2023-09-07T12:54:20;7.00;;;2.00;;
80823;SDS011;70538;59.122;37.876;2023-09-07T12:56:48;5.65;;;1.70;;
80823;SDS011;70538;59.122;37.876;2023-09-07T12:59:16;9.43;;;2.03;;
80823;SDS011;70538;59.122;37.876;2023-09-07T13:01:44;5.18;;;1.20;;
80823;SDS011;70538;59.122;37.876;2023-09-07T13:04:13;8.68;;;1.55;;
80823;SDS011;70538;59.122;37.876;2023-09-07T13:06:41;6.07;;;1.65;;
80823;SDS011;70538;59.122;37.876;2023-09-07T13:09:09;5.15;;;1.70;;
80823;SDS011;70538;59.122;37.876;2023-09-07T13:11:38;6.00;;;1.90;;
80823;SDS011;70538;59.122;37.876;2023-09-07T13:14:06;4.30;;;1.40;;
80823;SDS011;70538;59.122;37.876;2023-09-07T13:16:38;6.30;;;1.98;;
80823;SDS011;70538;59.122;37.876;2023-09-07T13:19:06;7.45;;;1.95;;
80823;SDS011;70538;59.122;37.876;2023-09-07T13:21:34;11.88;;;2.47;;
80823;SDS011;70538;59.122;37.876;2023-09-07T13:24:02;5.77;;;1.80;;
80823;SDS011;70538;59.122;37.876;2023-09-07T13:26:30;7.18;;;1.83;;
80823;SDS011;70538;59.122;37.876;2023-09-07T13:28:58;6.57;;;1.80;;
80823;SDS011;70538;59.122;37.876;2023-09-07T13:31:26;8.68;;;1.92;;
80823;SDS011;70538;59.122;37.876;2023-09-07T13:33:54;19.25;;;5.32;;
80823;SDS011;70538;59.122;37.876;2023-09-07T13:36:22;16.00;;;5.80;;
80823;SDS011;70538;59.122;37.876;2023-09-07T13:38:50;37.13;;;15.38;;
80823;SDS011;70538;59.122;37.876;2023-09-07T13:41:19;29.73;;;11.20;;
80823;SDS011;70538;59.122;37.876;2023-09-07T13:43:47;12.15;;;4.13;;
80823;SDS011;70538;59.122;37.876;2023-09-07T13:46:14;18.35;;;7.05;;
80823;SDS011;70538;59.122;37.876;2023-09-07T13:48:42;9.90;;;3.60;;
80823;SDS011;70538;59.122;37.876;2023-09-07T13:51:10;16.25;;;4.65;;
80823;SDS011;70538;59.122;37.876;2023-09-07T13:53:38;17.52;;;5.28;;
80823;SDS011;70538;59.122;37.876;2023-09-07T13:56:05;24.05;;;6.78;;
80823;SDS011;70538;59.122;37.876;2023-09-07T13:58:33;22.63;;;5.88;;
80823;SDS011;70538;59.122;37.876;2023-09-07T14:01:01;31.60;;;7.03;;
80823;SDS011;70538;59.122;37.876;2023-09-07T14:03:29;25.55;;;5.63;;
80823;SDS011;70538;59.122;37.876;2023-09-07T14:05:57;27.80;;;5.47;;
80823;SDS011;70538;59.122;37.876;2023-09-07T14:08:25;36.25;;;8.30;;
80823;SDS011;70538;59.122;37.876;2023-09-07T14:10:53;30.88;;;5.78;;
80823;SDS011;70538;59.122;37.876;2023-09-07T14:13:20;23.83;;;4.83;;
80823;SDS011;70538;59.122;37.876;2023-09-07T14:15:48;30.58;;;5.50;;
80823;SDS011;70538;59.122;37.876;2023-09-07T14:18:16;34.90;;;7.53;;
80823;SDS011;70538;59.122;37.876;2023-09-07T14:20:44;28.15;;;9.38;;
80823;SDS011;70538;59.122;37.876;2023-09-07T14:23:12;32.28;;;6.88;;
80823;SDS011;70538;59.122;37.876;2023-09-07T14:25:40;25.57;;;4.30;;
80823;SDS011;70538;59.122;37.876;2023-09-07T14:28:12;21.50;;;4.00;;